createdAt,value
2023-05-05T00:00:45.750Z,25
2023-05-05T00:06:38.476Z,24.9
2023-05-05T00:12:30.130Z,24.9
2023-05-05T00:18:22.658Z,24.8
2023-05-05T00:24:14.791Z,24.8
2023-05-05T00:30:08.939Z,24.7
2023-05-05T00:36:01.525Z,24.6
2023-05-05T00:41:52.690Z,24.4
2023-05-05T00:47:44.527Z,24.3
2023-05-05T00:53:36.889Z,24.3
2023-05-05T00:59:28.503Z,24.1
2023-05-05T01:05:20.194Z,24
2023-05-05T01:11:26.925Z,23.8
2023-05-05T01:17:19.161Z,23.8
2023-05-05T01:23:10.392Z,23.6
2023-05-05T01:29:01.779Z,23.4
2023-05-05T01:34:53.155Z,23.3
2023-05-05T01:40:29.246Z,23.1
2023-05-05T01:46:20.990Z,23
2023-05-05T01:51:58.032Z,22.9
2023-05-05T01:57:48.881Z,22.7
2023-05-05T02:03:41.695Z,22.5
2023-05-05T02:09:33.278Z,22.4
2023-05-05T02:15:25.122Z,22.2
2023-05-05T02:21:17.451Z,22
2023-05-05T02:27:08.990Z,21.8
2023-05-05T02:33:00.561Z,21.7
2023-05-05T02:38:52.664Z,21.5
2023-05-05T02:44:44.049Z,21.3
2023-05-05T02:50:19.473Z,21.2
2023-05-05T02:55:55.830Z,21
2023-05-05T03:01:47.449Z,20.8
2023-05-05T03:07:39.743Z,20.6
2023-05-05T03:13:16.239Z,20.5
2023-05-05T03:19:08.035Z,20.3
2023-05-05T03:25:01.175Z,20.2
2023-05-05T03:30:53.585Z,20
2023-05-05T03:36:46.269Z,19.9
2023-05-05T03:42:37.410Z,19.8
2023-05-05T03:48:14.716Z,19.6
2023-05-05T03:53:50.624Z,19.5
2023-05-05T03:59:41.616Z,19.4
2023-05-05T04:05:36.549Z,19.3
2023-05-05T04:11:27.524Z,19.1
2023-05-05T04:17:18.646Z,19
2023-05-05T04:23:10.312Z,18.9
2023-05-05T04:28:46.212Z,18.8
2023-05-05T04:39:28.019Z,18.6
2023-05-05T04:45:05.225Z,18.6
2023-05-05T04:50:26.291Z,18.4
2023-05-05T04:56:02.859Z,18.4
2023-05-05T05:01:39.095Z,18.3
2023-05-05T05:07:00.253Z,18.3
2023-05-05T05:12:21.465Z,18.2
2023-05-05T05:17:42.762Z,18.1
2023-05-05T05:23:33.987Z,18.1
2023-05-05T05:29:08.875Z,18.1
2023-05-05T05:34:45.790Z,18
2023-05-05T05:40:05.392Z,17.9
2023-05-05T05:45:57.317Z,17.9
2023-05-05T05:51:34.023Z,17.8
2023-05-05T05:56:54.406Z,17.8
2023-05-05T06:02:32.392Z,17.8
2023-05-05T06:08:09.478Z,17.8
2023-05-05T06:14:00.928Z,17.8
2023-05-05T06:19:39.862Z,17.7
2023-05-05T06:25:16.307Z,17.7
2023-05-05T06:30:36.588Z,17.6
2023-05-05T06:35:58.218Z,17.6
2023-05-05T06:41:19.364Z,17.6
2023-05-05T06:46:39.920Z,17.6
2023-05-05T06:51:45.862Z,17.6
2023-05-05T06:56:52.314Z,17.5
2023-05-05T07:02:12.589Z,17.5
2023-05-05T07:07:34.555Z,17.5
2023-05-05T07:12:56.848Z,17.5
2023-05-05T07:18:46.049Z,17.4
2023-05-05T07:24:07.838Z,17.5
2023-05-05T07:29:29.699Z,17.4
2023-05-05T07:35:10.376Z,17.4
2023-05-05T07:40:46.504Z,17.4
2023-05-05T07:46:26.905Z,17.4
2023-05-05T07:52:03.619Z,17.4
2023-05-05T07:57:57.848Z,17.4
2023-05-05T08:03:21.247Z,17.4
2023-05-05T08:08:59.200Z,17.4
2023-05-05T08:14:35.807Z,17.4
2023-05-05T08:20:25.587Z,17.4
2023-05-05T08:26:02.630Z,17.3
2023-05-05T08:31:39.354Z,17.3
2023-05-05T08:37:16.804Z,17.3
2023-05-05T08:43:10.489Z,17.3
2023-05-05T08:48:49.258Z,17.3
2023-05-05T08:54:26.969Z,17.3
2023-05-05T09:00:03.644Z,17.3
2023-05-05T09:05:25.902Z,17.3
2023-05-05T09:10:47.613Z,17.3
2023-05-05T09:15:52.251Z,17.3
2023-05-05T09:20:59.352Z,17.3
2023-05-05T09:26:22.393Z,17.3
2023-05-05T09:31:43.266Z,17.3
2023-05-05T09:36:49.538Z,17.3
2023-05-05T09:42:27.489Z,17.3
2023-05-05T09:48:20.178Z,17.3
2023-05-05T09:53:41.390Z,17.3
2023-05-05T09:59:03.201Z,17.3
2023-05-05T10:04:24.364Z,17.3
2023-05-05T10:10:01.375Z,17.3
2023-05-05T10:15:38.670Z,17.3
2023-05-05T10:20:55.122Z,17.3
2023-05-05T10:26:16.818Z,17.3
2023-05-05T10:31:52.268Z,17.3
2023-05-05T10:37:53.977Z,17.3
2023-05-05T10:43:15.182Z,17.3
2023-05-05T10:48:37.496Z,17.3
2023-05-05T10:54:27.604Z,17.3
2023-05-05T11:00:07.055Z,17.3
2023-05-05T11:05:30.050Z,17.3
2023-05-05T11:10:51.208Z,17.3
2023-05-05T11:16:30.884Z,17.3
2023-05-05T11:21:53.164Z,17.3
2023-05-05T11:27:14.191Z,17.3
2023-05-05T11:32:39.567Z,17.3
2023-05-05T11:38:04.331Z,17.3
2023-05-05T11:43:29.861Z,17.3
2023-05-05T11:49:08.219Z,17.3
2023-05-05T11:54:48.219Z,17.4
2023-05-05T12:00:09.129Z,17.3
2023-05-05T12:05:33.640Z,17.4
2023-05-05T12:11:13.323Z,17.4
2023-05-05T12:16:36.251Z,17.4
2023-05-05T12:21:57.796Z,17.4
2023-05-05T12:27:50.459Z,17.4
2023-05-05T12:33:28.921Z,17.4
2023-05-05T12:38:50.397Z,17.4
2023-05-05T12:44:12.586Z,17.4
2023-05-05T12:49:36.946Z,17.4
2023-05-05T12:55:13.625Z,17.4
2023-05-05T13:01:08.838Z,17.4
2023-05-05T13:06:30.883Z,17.4
2023-05-05T13:12:25.187Z,17.4
2023-05-05T13:18:19.128Z,17.4
2023-05-05T13:30:29.485Z,17.4
2023-05-05T13:36:07.954Z,17.4
2023-05-05T13:41:59.998Z,17.4
2023-05-05T13:47:52.095Z,17.4
2023-05-05T13:53:29.500Z,17.4
2023-05-05T13:59:24.961Z,17.5
2023-05-05T14:05:20.939Z,17.5
2023-05-05T14:11:15.251Z,17.5
2023-05-05T14:17:07.928Z,17.5
2023-05-05T14:22:46.249Z,17.5
2023-05-05T14:28:40.253Z,17.5
2023-05-05T14:34:33.201Z,17.5
2023-05-05T14:40:27.429Z,17.5
2023-05-05T14:46:21.823Z,17.5
2023-05-05T14:52:15.000Z,17.5
2023-05-05T14:58:19.179Z,17.5
2023-05-05T15:04:14.514Z,17.5
2023-05-05T15:10:10.009Z,17.6
2023-05-05T15:16:04.172Z,17.6
2023-05-05T15:21:44.002Z,17.6
2023-05-05T15:27:21.906Z,17.6
2023-05-05T15:32:59.847Z,17.6
2023-05-05T15:38:54.186Z,17.6
2023-05-05T15:44:48.560Z,17.6
2023-05-05T15:50:43.517Z,17.6
2023-05-05T15:56:26.257Z,17.6
2023-05-05T16:02:22.275Z,17.6
2023-05-05T16:08:02.650Z,17.6
2023-05-05T16:13:58.293Z,17.6
2023-05-05T16:19:54.298Z,17.6
2023-05-05T16:25:34.934Z,17.6
2023-05-05T16:31:15.224Z,17.6
2023-05-05T16:36:55.762Z,17.6
2023-05-05T16:42:37.072Z,17.6
2023-05-05T16:48:32.726Z,17.6
2023-05-05T16:54:28.428Z,17.6
2023-05-05T16:59:53.626Z,17.6
2023-05-05T17:05:19.761Z,17.6
2023-05-05T17:11:00.204Z,17.6
2023-05-05T17:16:42.545Z,17.6
2023-05-05T17:22:40.384Z,17.6
2023-05-05T17:28:39.555Z,17.6
2023-05-05T17:34:38.071Z,17.6
2023-05-05T17:40:36.370Z,17.6
2023-05-05T17:46:34.837Z,17.6
2023-05-05T17:52:32.942Z,17.6
2023-05-05T17:58:31.811Z,17.6
2023-05-05T18:04:32.007Z,17.6
2023-05-05T18:10:30.288Z,17.6
2023-05-05T18:16:30.075Z,17.6
2023-05-05T18:22:27.753Z,17.6
2023-05-05T18:28:38.918Z,17.6
2023-05-05T18:34:39.111Z,17.6
2023-05-05T18:40:37.147Z,17.6
2023-05-05T18:46:35.976Z,17.6
2023-05-05T18:52:35.921Z,17.6
2023-05-05T18:58:34.880Z,17.6
2023-05-05T19:04:47.782Z,17.6
2023-05-05T19:11:09.593Z,17.6
2023-05-05T19:17:08.477Z,17.6
2023-05-05T19:23:09.782Z,17.6
2023-05-05T19:29:08.063Z,17.6
2023-05-05T19:35:08.040Z,17.6
2023-05-05T19:41:06.732Z,17.6
2023-05-05T19:47:04.356Z,17.6
2023-05-05T19:53:03.601Z,17.6
2023-05-05T19:59:01.709Z,17.6
2023-05-05T20:05:01.346Z,17.5
2023-05-05T20:10:59.188Z,17.5
2023-05-05T20:16:58.403Z,17.5
2023-05-05T20:22:57.501Z,17.5
2023-05-05T20:28:55.406Z,17.5
2023-05-05T20:34:53.933Z,17.5
2023-05-05T20:40:52.576Z,17.5
2023-05-05T20:46:49.831Z,17.5
2023-05-05T20:52:53.796Z,17.4
2023-05-05T20:58:52.890Z,17.4
2023-05-05T21:04:52.721Z,17.4
2023-05-05T21:10:50.672Z,17.4
2023-05-05T21:16:48.948Z,17.4
2023-05-05T21:22:46.675Z,17.4
2023-05-05T21:28:44.430Z,17.4
2023-05-05T21:35:00.736Z,17.4
2023-05-05T21:40:58.876Z,17.4
2023-05-05T21:46:56.601Z,17.4
2023-05-05T21:52:52.943Z,17.4
2023-05-05T21:58:48.956Z,17.4
2023-05-05T22:04:29.420Z,17.4
2023-05-05T22:10:24.918Z,17.4
2023-05-05T22:16:26.287Z,17.4
2023-05-05T22:22:20.749Z,17.4
2023-05-05T22:28:15.283Z,17.4
2023-05-05T22:34:11.760Z,17.4
2023-05-05T22:39:49.735Z,17.3
2023-05-05T22:45:44.225Z,17.4
2023-05-05T22:51:22.559Z,17.3
2023-05-05T22:57:16.545Z,17.3
2023-05-05T23:03:10.868Z,17.3
2023-05-05T23:09:04.093Z,17.3
2023-05-05T23:14:57.316Z,17.3
2023-05-05T23:20:50.320Z,17.3
2023-05-05T23:26:35.488Z,17.3
2023-05-05T23:32:12.573Z,17.3
2023-05-05T23:37:49.258Z,17.3
2023-05-05T23:43:25.418Z,17.3
2023-05-05T23:49:02.788Z,17.3
2023-05-05T23:54:38.614Z,17.3
